Alum Creek, West Virginia
Current Conditions -  °F | °C
As of 11:54 AM on Thursday 27 Nov 2014 (Local Time) from KCRW Reporting Station
Overcast Overcast  
Wind Chill: 29°   Ceiling: 1900
Heat Index: 34°   Visibility: 7mi
Dew Point: 26°   Wind: 6mph
Humidity: 73%   Direction: NA
Pressure: 30.18"   Gusts: NA
Location:  38.28°N, 81.84°W
Report Text: KCRW 271654Z VRB05KT 7SM BKN019 OVC033 01/M03 A3018 RMK AO2 SLP226 CIG RGD T00111033
Loading
Personal Weather Stations






























Interactive Weather Map New forecast layout! Learn more

10-Day Weather Forecast

Advertisements
Track Severe Weather on mobile